createdAt,value
2018-07-11T00:01:02.763Z,24.53
2018-07-11T00:03:42.555Z,21.70
2018-07-11T00:06:10.935Z,23.50
2018-07-11T00:08:39.514Z,24.23
2018-07-11T00:11:08.006Z,24.80
2018-07-11T00:13:36.230Z,24.77
2018-07-11T00:16:04.646Z,25.13
2018-07-11T00:18:32.818Z,24.57
2018-07-11T00:21:01.406Z,25.10
2018-07-11T00:23:29.610Z,24.13
2018-07-11T00:25:57.803Z,23.83
2018-07-11T00:28:25.981Z,24.97
2018-07-11T00:30:54.714Z,24.53
2018-07-11T00:33:23.077Z,24.50
2018-07-11T00:35:51.290Z,23.90
2018-07-11T00:38:19.770Z,23.40
2018-07-11T00:40:48.102Z,23.37
2018-07-11T00:43:16.345Z,23.43
2018-07-11T00:45:44.543Z,22.50
2018-07-11T00:48:12.740Z,23.20
2018-07-11T00:50:41.512Z,24.20
2018-07-11T00:53:09.734Z,23.77
2018-07-11T00:55:38.114Z,24.73
2018-07-11T00:58:12.590Z,24.00
2018-07-11T01:00:40.775Z,23.53
2018-07-11T01:03:09.171Z,24.37
2018-07-11T01:05:37.402Z,24.23
2018-07-11T01:08:05.595Z,23.20
2018-07-11T01:10:33.835Z,23.50
2018-07-11T01:13:02.039Z,23.77
2018-07-11T01:15:30.226Z,23.40
2018-07-11T01:18:04.786Z,23.17
2018-07-11T01:20:33.254Z,23.50
2018-07-11T01:23:01.433Z,23.43
2018-07-11T01:25:29.787Z,23.50
2018-07-11T01:27:57.983Z,22.73
2018-07-11T01:30:26.163Z,24.00
2018-07-11T01:32:54.363Z,23.70
2018-07-11T01:35:22.574Z,23.70
2018-07-11T01:37:50.786Z,23.90
2018-07-11T01:40:18.967Z,25.07
2018-07-11T01:42:47.139Z,24.27
2018-07-11T01:45:15.305Z,24.30
2018-07-11T01:47:43.498Z,23.73
2018-07-11T01:50:12.063Z,23.97
2018-07-11T01:52:54.274Z,23.47
2018-07-11T01:55:22.507Z,24.60
2018-07-11T01:57:52.746Z,24.97
2018-07-11T02:00:20.954Z,23.73
2018-07-11T02:02:49.163Z,22.97
2018-07-11T02:05:17.399Z,23.93
2018-07-11T02:07:45.615Z,23.47
2018-07-11T02:10:13.818Z,23.60
2018-07-11T02:12:42.831Z,22.80
2018-07-11T02:15:11.679Z,22.50
2018-07-11T02:17:40.882Z,23.00
2018-07-11T02:20:12.007Z,22.70
2018-07-11T02:22:40.546Z,23.70
2018-07-11T02:25:09.141Z,22.20
2018-07-11T02:27:37.511Z,22.70
2018-07-11T02:30:05.724Z,22.90
2018-07-11T02:32:34.670Z,23.13
2018-07-11T02:35:02.871Z,22.17
2018-07-11T02:37:31.083Z,23.00
2018-07-11T02:39:59.434Z,22.87
2018-07-11T02:42:27.650Z,23.30
2018-07-11T02:44:55.947Z,23.40
2018-07-11T02:47:29.327Z,22.53
2018-07-11T02:49:57.555Z,23.20
2018-07-11T02:52:25.751Z,23.20
2018-07-11T02:54:53.941Z,23.17
2018-07-11T02:57:22.135Z,22.80
2018-07-11T02:59:50.306Z,22.13
2018-07-11T03:02:18.514Z,24.57
2018-07-11T03:04:46.718Z,23.17
2018-07-11T03:07:14.934Z,23.23
2018-07-11T03:09:43.298Z,22.20
2018-07-11T03:12:11.502Z,22.80
2018-07-11T03:14:43.146Z,22.53
2018-07-11T03:17:11.394Z,23.93
2018-07-11T03:19:39.563Z,23.13
2018-07-11T03:22:07.759Z,23.40
2018-07-11T03:24:35.955Z,23.63
2018-07-11T03:27:04.166Z,24.50
2018-07-11T03:29:32.390Z,24.20
2018-07-11T03:32:00.575Z,24.27
2018-07-11T03:34:28.766Z,23.77
2018-07-11T03:36:56.951Z,23.10
2018-07-11T03:39:25.218Z,23.23
2018-07-11T03:41:53.417Z,22.57
2018-07-11T03:44:21.615Z,23.57
2018-07-11T03:46:49.798Z,22.43
2018-07-11T03:49:18.000Z,25.03
2018-07-11T03:51:46.202Z,24.20
2018-07-11T03:54:14.930Z,24.60
2018-07-11T03:56:43.110Z,25.20
2018-07-11T03:59:11.354Z,25.23
2018-07-11T04:01:39.547Z,27.50
2018-07-11T04:04:07.730Z,25.50
2018-07-11T04:06:35.930Z,24.33
2018-07-11T04:09:04.412Z,25.30
2018-07-11T04:11:32.583Z,26.23
2018-07-11T04:14:00.751Z,24.70
2018-07-11T04:16:28.930Z,24.10
2018-07-11T04:18:57.243Z,24.90
2018-07-11T04:21:25.422Z,25.50
2018-07-11T04:23:53.607Z,25.60
2018-07-11T04:26:21.811Z,25.93
2018-07-11T04:28:50.101Z,25.93
2018-07-11T04:31:18.235Z,28.23
2018-07-11T04:33:46.435Z,26.03
2018-07-11T04:36:14.628Z,25.53
2018-07-11T04:38:42.799Z,26.73
2018-07-11T04:41:10.971Z,27.07
2018-07-11T04:43:39.170Z,26.27
2018-07-11T04:46:07.356Z,25.20
2018-07-11T04:48:35.886Z,26.80
2018-07-11T04:51:04.258Z,27.50
2018-07-11T04:53:32.561Z,27.93
2018-07-11T04:56:03.116Z,28.40
2018-07-11T04:58:31.906Z,28.30
2018-07-11T05:01:00.599Z,28.60
2018-07-11T05:03:29.183Z,28.40
2018-07-11T05:05:57.379Z,29.80
2018-07-11T05:08:26.143Z,29.17
2018-07-11T05:10:54.411Z,29.20
2018-07-11T05:13:22.907Z,30.50
2018-07-11T05:15:51.071Z,30.13
2018-07-11T05:18:19.271Z,30.47
2018-07-11T05:20:47.723Z,31.47
2018-07-11T05:23:16.402Z,31.00
2018-07-11T05:25:44.893Z,32.00
2018-07-11T05:28:13.083Z,33.20
2018-07-11T05:30:41.266Z,34.67
2018-07-11T05:33:09.455Z,32.10
2018-07-11T05:35:37.799Z,35.07
2018-07-11T05:38:05.970Z,33.47
2018-07-11T05:40:34.154Z,34.17
2018-07-11T05:43:02.319Z,33.40
2018-07-11T05:45:30.498Z,33.60
2018-07-11T05:47:58.775Z,35.37
2018-07-11T05:50:26.942Z,36.00
2018-07-11T05:52:55.106Z,35.50
2018-07-11T05:55:23.271Z,34.40
2018-07-11T05:57:51.452Z,37.47
2018-07-11T06:00:19.814Z,37.53
2018-07-11T06:02:48.211Z,37.03
2018-07-11T06:05:16.403Z,37.47
2018-07-11T06:07:44.594Z,38.23
2018-07-11T06:10:12.782Z,35.93
2018-07-11T06:12:41.027Z,38.10
2018-07-11T06:15:09.213Z,38.30
2018-07-11T06:17:37.478Z,37.40
2018-07-11T06:20:05.742Z,39.40
2018-07-11T06:22:34.377Z,36.40
2018-07-11T06:25:02.768Z,38.30
2018-07-11T06:27:31.066Z,37.70
2018-07-11T06:29:59.391Z,35.67
2018-07-11T06:32:27.569Z,36.83
2018-07-11T06:34:55.795Z,37.03
2018-07-11T06:37:24.071Z,37.60
2018-07-11T06:39:52.511Z,37.50
2018-07-11T06:42:20.679Z,38.60
2018-07-11T06:44:48.962Z,37.57
2018-07-11T06:47:17.184Z,37.17
2018-07-11T06:49:47.011Z,35.20
2018-07-11T06:52:15.803Z,34.57
2018-07-11T06:54:44.007Z,35.50
2018-07-11T06:57:12.251Z,36.43
2018-07-11T06:59:40.427Z,37.17
2018-07-11T07:02:08.598Z,33.83
2018-07-11T07:04:36.771Z,34.07
2018-07-11T07:07:04.960Z,33.07
2018-07-11T07:09:33.138Z,34.30
2018-07-11T07:12:02.363Z,32.87
2018-07-11T07:14:30.559Z,32.13
2018-07-11T07:16:58.738Z,33.50
2018-07-11T07:19:26.951Z,34.17
2018-07-11T07:21:55.326Z,33.90
2018-07-11T07:24:23.526Z,36.73
2018-07-11T07:26:51.708Z,37.23
2018-07-11T07:29:20.087Z,36.00
2018-07-11T07:31:48.255Z,35.90
2018-07-11T07:34:16.431Z,36.97
2018-07-11T07:36:44.655Z,35.53
2018-07-11T07:39:13.054Z,36.07
2018-07-11T07:41:41.358Z,35.90
2018-07-11T07:44:10.531Z,33.50
2018-07-11T07:46:38.746Z,35.47
2018-07-11T07:49:06.931Z,34.93
2018-07-11T07:51:35.127Z,34.90
2018-07-11T07:54:03.318Z,35.53
2018-07-11T07:56:31.518Z,34.70
2018-07-11T07:58:59.731Z,38.33
2018-07-11T08:01:27.954Z,36.77
2018-07-11T08:03:56.140Z,35.87
2018-07-11T08:06:24.350Z,33.27
2018-07-11T08:08:52.530Z,31.83
2018-07-11T08:11:20.743Z,33.23
2018-07-11T08:13:48.902Z,32.63
2018-07-11T08:16:23.363Z,34.00
2018-07-11T08:18:51.531Z,34.00
2018-07-11T08:21:19.914Z,31.47
2018-07-11T08:23:59.248Z,32.93
2018-07-11T08:27:40.841Z,32.00
2018-07-11T08:30:31.339Z,33.60
2018-07-11T08:35:13.267Z,28.40
2018-07-11T08:37:50.106Z,27.87
2018-07-11T08:43:35.387Z,30.33
2018-07-11T08:46:15.246Z,28.93
2018-07-11T08:48:54.514Z,29.57
2018-07-11T08:52:04.594Z,28.00
2018-07-11T08:54:43.754Z,25.23
2018-07-11T09:01:32.989Z,24.23
2018-07-11T09:06:19.155Z,21.53
2018-07-11T09:09:10.515Z,20.00
2018-07-11T09:11:53.418Z,19.53
2018-07-11T09:14:37.055Z,19.30
2018-07-11T09:20:22.426Z,17.80
2018-07-11T09:25:14.075Z,17.17
2018-07-11T09:27:42.246Z,17.40
2018-07-11T09:30:10.426Z,17.03
2018-07-11T09:32:38.603Z,18.30
2018-07-11T09:35:06.794Z,17.70
2018-07-11T09:37:34.981Z,16.40
2018-07-11T09:40:03.155Z,18.47
2018-07-11T09:42:31.336Z,17.67
2018-07-11T09:44:59.736Z,18.00
2018-07-11T09:47:29.009Z,17.47
2018-07-11T09:49:57.622Z,17.10
2018-07-11T09:52:25.843Z,16.53
2018-07-11T09:54:54.272Z,16.13
2018-07-11T09:57:22.687Z,17.10
2018-07-11T09:59:50.890Z,17.20
2018-07-11T10:02:19.114Z,16.40
2018-07-11T10:04:47.409Z,15.33
2018-07-11T10:07:15.611Z,15.03
2018-07-11T10:09:43.794Z,15.00
2018-07-11T10:12:11.988Z,15.40
2018-07-11T10:14:40.154Z,14.47
2018-07-11T10:17:08.370Z,16.03
2018-07-11T10:19:36.566Z,15.63
2018-07-11T10:22:04.758Z,16.30
2018-07-11T10:24:32.962Z,16.13
2018-07-11T10:27:01.172Z,16.87
2018-07-11T10:29:29.351Z,16.43
2018-07-11T10:31:57.545Z,15.40
2018-07-11T10:34:25.722Z,14.70
2018-07-11T10:36:53.903Z,13.03
2018-07-11T10:39:22.082Z,13.67
2018-07-11T10:41:50.287Z,13.50
2018-07-11T10:44:18.467Z,13.00
2018-07-11T10:46:46.644Z,13.50
2018-07-11T10:49:14.842Z,12.67
2018-07-11T10:51:43.007Z,13.60
2018-07-11T10:54:11.188Z,14.43
2018-07-11T10:56:39.374Z,13.80
2018-07-11T10:59:07.558Z,14.80
2018-07-11T11:01:35.832Z,14.80
2018-07-11T11:04:03.943Z,13.40
2018-07-11T11:06:32.098Z,15.70
2018-07-11T11:09:00.308Z,17.40
2018-07-11T11:11:28.482Z,16.33
2018-07-11T11:13:56.712Z,14.77
2018-07-11T11:16:24.906Z,16.27
2018-07-11T11:18:53.083Z,15.63
2018-07-11T11:21:21.288Z,14.63
2018-07-11T11:23:49.467Z,13.77
2018-07-11T11:26:17.655Z,12.40
2018-07-11T11:28:45.840Z,12.77
2018-07-11T11:31:14.011Z,12.90
2018-07-11T11:33:42.194Z,12.70
2018-07-11T11:36:10.386Z,10.97
2018-07-11T11:38:38.563Z,11.47
2018-07-11T11:41:06.902Z,10.37
2018-07-11T11:43:35.098Z,10.20
2018-07-11T11:46:03.287Z,10.67
2018-07-11T11:48:31.479Z,10.90
2018-07-11T11:50:59.659Z,10.07
2018-07-11T11:53:27.836Z,11.60
2018-07-11T11:55:56.023Z,11.87
2018-07-11T11:58:24.190Z,11.20
2018-07-11T12:00:52.371Z,11.07
2018-07-11T12:03:20.543Z,11.50
2018-07-11T12:05:48.723Z,10.30
2018-07-11T12:08:16.918Z,11.07
2018-07-11T12:10:45.120Z,10.13
2018-07-11T12:13:13.335Z,9.80
2018-07-11T12:15:41.495Z,9.30
2018-07-11T12:18:09.666Z,8.90
2018-07-11T12:20:37.834Z,9.70
2018-07-11T12:23:06.013Z,9.80
2018-07-11T12:25:34.463Z,10.17
2018-07-11T12:28:02.651Z,10.30
2018-07-11T12:30:30.847Z,11.23
2018-07-11T12:32:59.042Z,9.80
2018-07-11T12:35:27.243Z,10.07
2018-07-11T12:37:55.452Z,10.20
2018-07-11T12:40:23.719Z,10.57
2018-07-11T12:42:51.938Z,10.33
2018-07-11T12:45:20.142Z,9.10
2018-07-11T12:47:54.006Z,9.30
2018-07-11T12:50:22.224Z,10.10
2018-07-11T12:52:50.420Z,9.80
2018-07-11T12:55:18.714Z,10.13
2018-07-11T12:57:46.924Z,9.90
2018-07-11T13:00:15.131Z,11.30
2018-07-11T13:02:43.390Z,10.40
2018-07-11T13:05:11.803Z,9.87
2018-07-11T13:07:40.087Z,9.10
2018-07-11T13:10:08.270Z,9.43
2018-07-11T13:12:36.690Z,9.77
2018-07-11T13:15:05.415Z,9.43
2018-07-11T13:17:33.591Z,9.80
2018-07-11T13:20:01.763Z,11.00
2018-07-11T13:22:30.020Z,10.47
2018-07-11T13:24:58.222Z,10.20
2018-07-11T13:27:26.588Z,10.70
2018-07-11T13:29:54.770Z,10.00
2018-07-11T13:32:26.598Z,10.87
2018-07-11T13:34:55.019Z,9.90
2018-07-11T13:37:23.259Z,11.17
2018-07-11T13:39:51.438Z,10.67
2018-07-11T13:42:19.625Z,11.13
2018-07-11T13:44:47.819Z,10.43
2018-07-11T13:47:21.351Z,10.67
2018-07-11T13:49:49.546Z,10.77
2018-07-11T13:52:17.984Z,11.00
2018-07-11T13:54:46.170Z,10.90
2018-07-11T13:57:14.363Z,10.20
2018-07-11T13:59:42.674Z,10.77
2018-07-11T14:02:10.886Z,10.90
2018-07-11T14:04:39.070Z,11.50
2018-07-11T14:07:07.540Z,11.73
2018-07-11T14:09:35.841Z,11.20
2018-07-11T14:12:04.259Z,11.20
2018-07-11T14:14:32.843Z,11.73
2018-07-11T14:17:01.220Z,11.27
2018-07-11T14:19:29.584Z,10.67
2018-07-11T14:21:57.797Z,11.20
2018-07-11T14:24:27.707Z,11.50
2018-07-11T14:26:55.965Z,10.80
2018-07-11T14:29:28.134Z,10.40
2018-07-11T14:31:57.520Z,11.10
2018-07-11T14:34:25.844Z,11.30
2018-07-11T14:36:54.082Z,12.10
2018-07-11T14:39:22.275Z,11.50
2018-07-11T14:41:50.682Z,12.07
2018-07-11T14:44:19.087Z,11.30
2018-07-11T14:46:47.273Z,12.53
2018-07-11T14:49:16.366Z,12.27
2018-07-11T14:51:44.539Z,12.50
2018-07-11T14:54:13.083Z,12.00
2018-07-11T14:56:41.379Z,13.37
2018-07-11T14:59:09.572Z,12.70
2018-07-11T15:01:37.755Z,14.70
2018-07-11T15:04:06.190Z,15.20
2018-07-11T15:06:34.548Z,16.67
2018-07-11T15:09:02.926Z,16.60
2018-07-11T15:11:30.950Z,16.60
2018-07-11T15:13:59.146Z,17.33
2018-07-11T15:16:27.834Z,18.93
2018-07-11T15:18:56.026Z,20.23
2018-07-11T15:21:24.432Z,22.67
2018-07-11T15:23:52.830Z,24.67
2018-07-11T15:26:21.189Z,24.77
2018-07-11T15:28:49.567Z,25.70
2018-07-11T15:31:17.980Z,26.00
2018-07-11T15:33:46.265Z,24.70
2018-07-11T15:36:14.946Z,25.37
2018-07-11T15:38:43.214Z,25.03
2018-07-11T15:41:11.467Z,24.80
2018-07-11T15:43:40.662Z,23.87
2018-07-11T15:46:08.847Z,24.90
2018-07-11T15:48:37.129Z,22.87
2018-07-11T15:51:05.725Z,23.47
2018-07-11T15:53:34.354Z,21.77
2018-07-11T15:56:02.592Z,23.40
2018-07-11T15:58:31.764Z,23.07
2018-07-11T16:01:04.890Z,23.60
2018-07-11T16:03:35.582Z,22.20
2018-07-11T16:06:03.799Z,21.17
2018-07-11T16:08:31.991Z,22.30
2018-07-11T16:11:03.462Z,20.10
2018-07-11T16:13:31.741Z,20.83
2018-07-11T16:15:59.955Z,18.80
2018-07-11T16:18:28.744Z,19.70
2018-07-11T16:20:56.926Z,20.43
2018-07-11T16:23:25.118Z,20.13
2018-07-11T16:25:53.326Z,21.40
2018-07-11T16:28:21.531Z,20.20
2018-07-11T16:30:49.702Z,21.00
2018-07-11T16:33:17.930Z,19.50
2018-07-11T16:35:46.134Z,20.70
2018-07-11T16:38:14.326Z,19.93
2018-07-11T16:40:42.494Z,21.13
2018-07-11T16:43:10.894Z,19.30
2018-07-11T16:45:39.083Z,20.83
2018-07-11T16:48:07.286Z,21.00
2018-07-11T16:50:36.358Z,19.13
2018-07-11T16:53:05.061Z,21.90
2018-07-11T16:55:35.318Z,20.60
2018-07-11T16:58:04.503Z,21.27
2018-07-11T17:00:34.018Z,23.10
2018-07-11T17:03:07.166Z,20.33
2018-07-11T17:05:46.555Z,22.10
2018-07-11T17:08:18.292Z,21.27
2018-07-11T17:10:46.866Z,21.17
2018-07-11T17:13:21.317Z,21.83
2018-07-11T17:15:51.019Z,25.53
2018-07-11T17:18:32.261Z,24.10
2018-07-11T17:21:06.371Z,26.50
2018-07-11T17:23:36.537Z,22.53
2018-07-11T17:26:04.734Z,25.50
2018-07-11T17:28:33.842Z,25.70
2018-07-11T17:31:02.402Z,27.27
2018-07-11T17:33:30.859Z,29.20
2018-07-11T17:35:59.103Z,28.77
2018-07-11T17:38:29.002Z,29.40
2018-07-11T17:40:57.494Z,30.13
2018-07-11T17:43:40.453Z,29.57
2018-07-11T17:46:09.600Z,29.47
2018-07-11T17:48:51.818Z,28.83
2018-07-11T17:51:30.954Z,29.57
2018-07-11T17:53:59.343Z,29.47
2018-07-11T17:56:37.407Z,28.70
2018-07-11T17:59:05.717Z,26.80
2018-07-11T18:01:37.451Z,29.53
2018-07-11T18:04:17.375Z,29.03
2018-07-11T18:06:59.868Z,26.03
2018-07-11T18:09:31.734Z,26.03
2018-07-11T18:12:09.047Z,24.53
2018-07-11T18:14:49.043Z,26.57
2018-07-11T18:19:31.610Z,25.87
2018-07-11T18:22:14.334Z,24.60
2018-07-11T18:24:49.843Z,25.77
2018-07-11T18:27:31.885Z,24.47
2018-07-11T18:32:18.892Z,26.07
2018-07-11T18:34:57.443Z,24.47
2018-07-11T18:38:02.454Z,26.87
2018-07-11T18:40:32.974Z,25.37
2018-07-11T18:43:14.261Z,26.20
2018-07-11T18:45:52.227Z,26.67
2018-07-11T18:48:28.519Z,26.30
2018-07-11T18:51:07.935Z,25.87
2018-07-11T18:53:49.576Z,24.70
2018-07-11T18:56:42.554Z,25.57
2018-07-11T18:59:22.194Z,26.20
2018-07-11T19:02:02.257Z,25.40
2018-07-11T19:04:36.310Z,25.00
2018-07-11T19:07:12.017Z,26.57
2018-07-11T19:09:51.762Z,26.57
2018-07-11T19:12:32.432Z,29.27
2018-07-11T19:15:05.298Z,25.17
2018-07-11T19:19:43.514Z,26.60
2018-07-11T19:22:48.150Z,29.30
2018-07-11T19:25:30.259Z,29.07
2018-07-11T19:28:03.858Z,30.43
2018-07-11T19:31:52.103Z,30.80
2018-07-11T19:34:27.781Z,32.37
2018-07-11T19:37:03.321Z,31.70
2018-07-11T19:40:41.128Z,32.90
2018-07-11T19:43:17.970Z,31.60
2018-07-11T19:46:00.962Z,31.03
2018-07-11T19:49:41.795Z,31.83
2018-07-11T19:52:15.067Z,33.50
2018-07-11T19:54:52.630Z,31.50
2018-07-11T19:57:20.834Z,34.80
2018-07-11T19:59:49.014Z,34.60
2018-07-11T20:02:17.207Z,36.50
2018-07-11T20:04:45.411Z,33.53
2018-07-11T20:07:13.642Z,33.03
2018-07-11T20:09:41.826Z,32.47
2018-07-11T20:12:10.035Z,32.97
2018-07-11T20:14:38.203Z,30.63
2018-07-11T20:17:12.809Z,28.67
2018-07-11T20:19:41.002Z,30.13
2018-07-11T20:22:09.200Z,30.83
2018-07-11T20:24:37.382Z,31.20
2018-07-11T20:27:05.542Z,29.73
2018-07-11T20:29:33.938Z,31.00
2018-07-11T20:32:02.142Z,30.83
2018-07-11T20:34:30.330Z,32.03
2018-07-11T20:36:58.519Z,32.40
2018-07-11T20:39:26.716Z,33.97
2018-07-11T20:41:54.921Z,32.40
2018-07-11T20:44:23.162Z,33.07
2018-07-11T20:46:51.367Z,31.40
2018-07-11T20:49:24.797Z,33.83
2018-07-11T20:51:52.922Z,34.23
2018-07-11T20:54:21.115Z,33.00
2018-07-11T20:56:49.279Z,35.10
2018-07-11T20:59:29.087Z,31.97
2018-07-11T21:03:11.546Z,32.87
2018-07-11T21:05:57.480Z,34.60
2018-07-11T21:08:42.022Z,35.03
2018-07-11T21:11:18.818Z,34.67
2018-07-11T21:16:00.716Z,36.97
2018-07-11T21:18:40.176Z,36.30
2018-07-11T21:21:08.335Z,39.13
2018-07-11T21:23:36.558Z,38.73
2018-07-11T21:26:04.751Z,41.17
2018-07-11T21:28:32.942Z,39.60
2018-07-11T21:31:01.130Z,41.23
2018-07-11T21:33:29.373Z,39.57
2018-07-11T21:35:57.538Z,41.33
2018-07-11T21:38:25.730Z,41.87
2018-07-11T21:40:53.911Z,44.00
2018-07-11T21:43:22.129Z,43.90
2018-07-11T21:45:50.317Z,43.87
2018-07-11T21:48:18.494Z,43.43
2018-07-11T21:50:46.946Z,43.50
2018-07-11T21:53:15.119Z,43.40
2018-07-11T21:55:43.340Z,43.30
2018-07-11T21:58:11.566Z,44.50
2018-07-11T22:00:40.873Z,41.97
2018-07-11T22:03:10.066Z,44.53
2018-07-11T22:05:38.350Z,45.50
2018-07-11T22:08:08.559Z,45.00
2018-07-11T22:10:38.283Z,42.77
2018-07-11T22:13:06.919Z,46.13
2018-07-11T22:15:35.315Z,47.73
2018-07-11T22:18:15.196Z,46.17
2018-07-11T22:20:42.291Z,47.03
2018-07-11T22:23:09.410Z,51.20
2018-07-11T22:25:36.510Z,52.53
2018-07-11T22:28:03.619Z,51.13
2018-07-11T22:30:30.735Z,51.83
2018-07-11T22:32:57.851Z,52.00
2018-07-11T22:35:24.950Z,52.83
2018-07-11T22:37:52.062Z,52.07
2018-07-11T22:40:19.167Z,51.90
2018-07-11T22:42:46.316Z,50.30
2018-07-11T22:45:13.383Z,51.80
2018-07-11T22:47:40.488Z,53.37
2018-07-11T22:50:07.590Z,51.90
2018-07-11T22:52:34.725Z,49.60
2018-07-11T22:55:01.811Z,48.53
2018-07-11T22:57:28.903Z,51.10
2018-07-11T22:59:56.022Z,48.23
2018-07-11T23:02:23.131Z,47.80
2018-07-11T23:04:50.231Z,48.03
2018-07-11T23:07:17.331Z,47.30
2018-07-11T23:09:44.428Z,49.43
2018-07-11T23:12:11.530Z,47.00
2018-07-11T23:14:38.639Z,45.70
2018-07-11T23:17:05.743Z,43.47
2018-07-11T23:19:32.848Z,46.67
2018-07-11T23:21:59.992Z,44.40
2018-07-11T23:24:27.095Z,44.60
2018-07-11T23:26:54.371Z,45.67
2018-07-11T23:29:21.618Z,45.87
2018-07-11T23:31:48.726Z,49.83
2018-07-11T23:34:15.831Z,46.50
2018-07-11T23:36:42.980Z,46.53
2018-07-11T23:39:11.039Z,46.90
2018-07-11T23:41:38.155Z,50.70
2018-07-11T23:44:05.259Z,47.47
2018-07-11T23:46:32.370Z,49.30
2018-07-11T23:48:59.484Z,47.50
2018-07-11T23:51:26.587Z,45.97
2018-07-11T23:53:53.695Z,49.60
2018-07-11T23:56:20.799Z,50.63
2018-07-11T23:58:48.149Z,47.80
